Time;durP1;ratioP1;P1;durP2;ratioP2;P2;SDS_P1;SDS_P2;PMS_P1;PMS_P2;Temp;Humidity;BMP_temperature;BMP_pressure;BME280_temperature;BME280_humidity;BME280_pressure;Samples;Min_cycle;Max_cycle;Signal;HPM_P1;HPM_P2
2021/08/11 00:00:12;;;;;;;8.90;5.93;;;13.50;99.90;;;;;;4399124;32;20202;-61
2021/08/11 00:02:38;;;;;;;7.97;6.17;;;13.50;99.90;;;;;;4391335;32;20166;-61
2021/08/11 00:05:11;;;;;;;10.83;6.40;;;13.60;99.90;;;;;;4392294;32;20175;-61
2021/08/11 00:07:38;;;;;;;10.13;7.17;;;13.60;99.90;;;;;;4392178;32;20222;-61
2021/08/11 00:10:06;;;;;;;10.20;6.37;;;13.60;99.90;;;;;;4391056;32;20148;-61
2021/08/11 00:12:36;;;;;;;8.80;5.77;;;13.60;99.90;;;;;;4387408;32;20234;-61
2021/08/11 00:15:04;;;;;;;14.10;6.00;;;13.50;99.90;;;;;;4398117;32;20177;-61
2021/08/11 00:17:35;;;;;;;11.70;6.03;;;13.40;99.90;;;;;;4405761;32;20156;-62
2021/08/11 00:20:04;;;;;;;9.40;6.53;;;13.40;99.90;;;;;;4405886;32;20158;-64
2021/08/11 00:22:32;;;;;;;11.37;7.57;;;13.40;99.90;;;;;;4406258;32;20156;-61
2021/08/11 00:24:59;;;;;;;9.83;6.73;;;13.40;99.90;;;;;;4405995;32;20170;-62
2021/08/11 00:27:31;;;;;;;9.23;6.40;;;13.40;99.90;;;;;;4405981;32;20614;-62
2021/08/11 00:30:01;;;;;;;10.43;7.27;;;13.30;99.90;;;;;;4405819;32;20214;-62
2021/08/11 00:32:31;;;;;;;8.77;7.50;;;13.40;99.90;;;;;;4406654;32;20247;-63
2021/08/11 00:34:58;;;;;;;10.27;6.97;;;13.30;99.90;;;;;;4405848;32;20147;-61
2021/08/11 00:37:25;;;;;;;11.30;7.60;;;13.30;99.90;;;;;;4406836;32;20175;-62
2021/08/11 00:39:58;;;;;;;11.67;7.20;;;13.30;99.90;;;;;;4407590;32;20140;-63
2021/08/11 00:42:25;;;;;;;11.70;6.83;;;13.30;99.90;;;;;;4393424;32;20278;-62
2021/08/11 00:44:55;;;;;;;11.63;7.67;;;13.30;99.90;;;;;;4406023;32;20567;-62
2021/08/11 00:47:32;;;;;;;13.17;7.97;;;13.30;99.90;;;;;;4405609;32;20138;-61
2021/08/11 00:49:59;;;;;;;11.23;7.50;;;13.30;99.90;;;;;;4407434;32;20597;-61
2021/08/11 00:52:31;;;;;;;11.80;8.00;;;13.20;99.90;;;;;;4406102;32;20152;-62
2021/08/11 00:55:03;;;;;;;12.03;8.60;;;13.20;99.90;;;;;;4405914;32;20162;-63
2021/08/11 00:57:33;;;;;;;14.77;8.57;;;13.20;99.90;;;;;;4404540;32;20638;-63
2021/08/11 01:00:02;;;;;;;10.13;7.93;;;13.20;99.90;;;;;;4393555;32;20138;-62
2021/08/11 01:02:32;;;;;;;12.60;7.90;;;13.20;99.90;;;;;;4407343;32;20139;-62
2021/08/11 01:05:01;;;;;;;11.90;8.13;;;13.10;99.90;;;;;;4405797;32;20181;-61
2021/08/11 01:07:29;;;;;;;11.00;8.33;;;13.10;99.90;;;;;;4407092;32;20140;-61
2021/08/11 01:09:56;;;;;;;10.23;6.90;;;13.10;99.90;;;;;;4405984;32;20182;-61
2021/08/11 01:12:26;;;;;;;9.40;7.27;;;13.10;99.90;;;;;;4406523;32;20132;-61
2021/08/11 01:14:54;;;;;;;9.87;7.30;;;13.10;99.90;;;;;;4405436;32;20159;-63
2021/08/11 01:17:25;;;;;;;12.23;7.50;;;13.10;99.90;;;;;;4404997;32;20564;-61
2021/08/11 01:19:52;;;;;;;11.73;7.13;;;13.10;99.90;;;;;;4405210;32;20163;-61
2021/08/11 01:22:31;;;;;;;10.70;6.93;;;13.10;99.90;;;;;;4405177;32;20144;-61
2021/08/11 01:25:06;;;;;;;12.07;7.13;;;13.00;99.90;;;;;;4407052;32;20140;-63
2021/08/11 01:28:02;;;;;;;10.67;7.20;;;13.00;99.90;;;;;;4406713;32;20166;-61
2021/08/11 01:30:41;;;;;;;12.47;7.17;;;13.00;99.90;;;;;;4405722;32;20170;-61
2021/08/11 01:33:45;;;;;;;12.10;7.00;;;13.00;99.90;;;;;;4391582;32;20167;-61
2021/08/11 01:36:24;;;;;;;9.43;7.47;;;13.00;99.90;;;;;;4406882;32;20139;-61
2021/08/11 01:38:59;;;;;;;10.03;7.10;;;13.00;99.90;;;;;;4404992;32;20159;-61
2021/08/11 01:41:35;;;;;;;11.73;7.27;;;13.00;99.90;;;;;;4405105;32;20139;-61
2021/08/11 01:44:08;;;;;;;12.13;7.40;;;13.00;99.90;;;;;;4406902;32;20151;-61
2021/08/11 01:46:50;;;;;;;14.33;7.63;;;12.90;99.90;;;;;;4405823;32;20471;-64
2021/08/11 01:49:22;;;;;;;11.97;7.77;;;12.90;99.90;;;;;;4404955;32;20158;-64
2021/08/11 01:51:49;;;;;;;12.57;7.00;;;12.90;99.90;;;;;;4403686;32;20553;-62
2021/08/11 01:54:30;;;;;;;14.80;8.07;;;12.80;99.90;;;;;;4396929;32;20141;-62
2021/08/11 01:57:03;;;;;;;11.50;7.50;;;12.80;99.90;;;;;;4404812;32;20179;-61
2021/08/11 01:59:35;;;;;;;10.87;7.27;;;12.80;99.90;;;;;;4404981;32;20155;-61
2021/08/11 02:02:03;;;;;;;10.37;7.50;;;12.70;99.90;;;;;;4404831;32;20471;-64
2021/08/11 02:04:32;;;;;;;14.63;8.57;;;12.70;99.90;;;;;;4406286;32;20479;-61
2021/08/11 02:06:59;;;;;;;13.67;7.53;;;12.70;99.90;;;;;;4405042;32;20158;-63
2021/08/11 02:09:32;;;;;;;11.83;7.73;;;12.70;99.90;;;;;;4404878;32;20136;-62
2021/08/11 02:11:59;;;;;;;9.77;7.37;;;12.70;99.90;;;;;;4406626;32;20210;-63
2021/08/11 02:14:38;;;;;;;11.30;7.90;;;12.70;99.90;;;;;;4404713;32;20147;-61
2021/08/11 02:17:12;;;;;;;10.53;7.07;;;12.70;99.90;;;;;;4406338;32;20135;-64
2021/08/11 02:19:43;;;;;;;10.43;7.93;;;12.70;99.90;;;;;;4385324;32;20664;-64
2021/08/11 02:22:10;;;;;;;16.07;7.63;;;12.60;99.90;;;;;;4400240;32;20148;-62
2021/08/11 02:24:43;;;;;;;12.47;7.17;;;12.60;99.90;;;;;;4404860;32;20144;-62
2021/08/11 02:27:22;;;;;;;11.67;7.10;;;12.70;99.90;;;;;;4406558;32;20163;-61
2021/08/11 02:30:02;;;;;;;9.30;7.07;;;12.70;99.90;;;;;;4405419;32;20171;-62
2021/08/11 02:32:39;;;;;;;10.47;7.33;;;12.60;99.90;;;;;;4409316;32;20463;-61
2021/08/11 02:35:17;;;;;;;10.60;6.90;;;12.60;99.90;;;;;;4407575;32;20136;-63
2021/08/11 02:37:53;;;;;;;12.30;7.23;;;12.60;99.90;;;;;;4407496;32;20151;-62
2021/08/11 02:40:26;;;;;;;10.27;7.03;;;12.50;99.90;;;;;;4407579;32;20162;-61
2021/08/11 02:42:59;;;;;;;11.07;6.97;;;12.50;99.90;;;;;;4407904;32;20234;-62
2021/08/11 02:45:30;;;;;;;8.80;6.50;;;12.50;99.90;;;;;;4408535;32;20163;-64
2021/08/11 02:47:59;;;;;;;11.33;7.47;;;12.50;99.90;;;;;;4409021;32;20610;-62
2021/08/11 02:50:29;;;;;;;9.63;7.03;;;12.50;99.90;;;;;;4407532;32;20155;-62
2021/08/11 02:52:57;;;;;;;13.10;7.40;;;12.50;99.90;;;;;;4407482;32;20170;-63
2021/08/11 02:55:25;;;;;;;9.87;6.93;;;12.40;99.90;;;;;;4407660;32;20148;-64
2021/08/11 02:57:58;;;;;;;10.83;7.00;;;12.50;99.90;;;;;;4408300;32;20140;-62
2021/08/11 03:00:28;;;;;;;11.73;7.73;;;12.50;99.90;;;;;;4407264;32;20154;-63
2021/08/11 03:03:01;;;;;;;11.17;7.27;;;12.40;99.90;;;;;;4408898;32;20171;-61
2021/08/11 03:05:31;;;;;;;11.93;8.07;;;12.40;99.90;;;;;;4408141;32;20167;-62
2021/08/11 03:08:02;;;;;;;12.23;7.80;;;12.40;99.90;;;;;;4407295;32;20179;-63
2021/08/11 03:10:31;;;;;;;11.20;7.77;;;12.50;99.90;;;;;;4407653;32;20159;-61
2021/08/11 03:13:00;;;;;;;12.37;8.37;;;12.40;99.90;;;;;;4407294;32;20193;-62
2021/08/11 03:15:29;;;;;;;12.83;8.07;;;12.40;99.90;;;;;;4407765;32;20170;-63
2021/08/11 03:17:56;;;;;;;10.77;8.90;;;12.40;99.90;;;;;;4408755;32;20181;-62
2021/08/11 03:20:26;;;;;;;15.63;9.43;;;12.40;99.90;;;;;;4407045;32;20178;-63
2021/08/11 03:23:12;;;;;;;11.27;8.97;;;12.30;99.90;;;;;;4407088;32;20151;-62
2021/08/11 03:25:42;;;;;;;13.33;8.73;;;12.30;99.90;;;;;;4407061;32;20136;-62
2021/08/11 03:28:10;;;;;;;13.17;9.80;;;12.40;99.90;;;;;;4314373;32;3032016;-62
2021/08/11 03:30:42;;;;;;;12.87;8.97;;;12.30;99.90;;;;;;4406901;32;20148;-64
2021/08/11 03:33:10;;;;;;;14.33;9.43;;;12.30;99.90;;;;;;4406935;32;20148;-62
2021/08/11 03:35:36;;;;;;;13.93;9.13;;;12.40;99.90;;;;;;4408530;32;20178;-62
2021/08/11 03:38:17;;;;;;;13.90;9.23;;;12.40;99.90;;;;;;4407211;32;20572;-62
2021/08/11 03:40:47;;;;;;;16.77;8.80;;;12.30;99.90;;;;;;4408039;32;20143;-62
2021/08/11 03:43:16;;;;;;;15.13;9.37;;;12.30;99.90;;;;;;4407391;32;20594;-63
2021/08/11 03:45:49;;;;;;;10.87;9.13;;;12.30;99.90;;;;;;4406541;32;20152;-62
2021/08/11 03:48:23;;;;;;;13.07;9.20;;;12.30;99.90;;;;;;4406597;32;20174;-61
2021/08/11 03:50:56;;;;;;;14.03;10.10;;;12.30;99.90;;;;;;4406392;32;20174;-61
2021/08/11 03:53:24;;;;;;;15.30;10.20;;;12.20;99.90;;;;;;4406604;32;20140;-62
2021/08/11 03:55:51;;;;;;;16.13;10.27;;;12.20;99.90;;;;;;4406587;32;20171;-62
2021/08/11 03:58:21;;;;;;;15.20;10.97;;;12.20;99.90;;;;;;4406418;32;20198;-62
2021/08/11 04:00:58;;;;;;;16.63;11.10;;;12.20;99.90;;;;;;4406369;32;20156;-63
2021/08/11 04:03:31;;;;;;;21.73;10.77;;;12.20;99.90;;;;;;4405893;32;20147;-62
2021/08/11 04:06:03;;;;;;;14.00;10.53;;;12.20;99.90;;;;;;4406298;32;20152;-61
2021/08/11 04:08:36;;;;;;;15.17;10.97;;;12.20;99.90;;;;;;4406256;32;20140;-63
2021/08/11 04:11:02;;;;;;;14.87;10.70;;;12.30;99.90;;;;;;4406192;32;20155;-62
2021/08/11 04:13:31;;;;;;;18.17;10.53;;;12.30;99.90;;;;;;4406231;32;20166;-62
2021/08/11 04:16:02;;;;;;;13.03;9.73;;;12.30;99.90;;;;;;4406245;32;20152;-62
2021/08/11 04:18:31;;;;;;;16.03;11.20;;;12.30;99.90;;;;;;4405966;32;20186;-63
2021/08/11 04:21:00;;;;;;;16.07;10.67;;;12.30;99.90;;;;;;4408061;32;20200;-64
2021/08/11 04:23:31;;;;;;;12.93;10.23;;;12.30;99.90;;;;;;4406482;32;20151;-62
2021/08/11 04:26:00;;;;;;;21.90;10.97;;;12.30;99.90;;;;;;4407520;32;20222;-63
2021/08/11 04:28:32;;;;;;;12.20;8.67;;;12.20;99.90;;;;;;4406873;32;20489;-62
2021/08/11 04:31:00;;;;;;;16.90;9.93;;;12.30;99.90;;;;;;4407437;32;20186;-63
2021/08/11 04:33:32;;;;;;;15.03;9.73;;;12.20;99.90;;;;;;4405876;32;20213;-62
2021/08/11 04:36:04;;;;;;;12.53;10.23;;;12.30;99.90;;;;;;4406136;32;20625;-63
2021/08/11 04:38:38;;;;;;;14.37;11.07;;;12.30;99.90;;;;;;4405628;32;20151;-61
2021/08/11 04:41:07;;;;;;;13.93;9.63;;;12.30;99.90;;;;;;4405913;32;20167;-61
2021/08/11 04:43:34;;;;;;;15.67;11.87;;;12.40;99.90;;;;;;4405910;32;20201;-61
2021/08/11 04:46:05;;;;;;;14.30;10.83;;;12.40;99.90;;;;;;4405624;32;20151;-61
2021/08/11 04:48:32;;;;;;;14.87;10.87;;;12.50;99.90;;;;;;4405966;32;20208;-62
2021/08/11 04:51:01;;;;;;;16.40;11.30;;;12.50;99.90;;;;;;4405726;32;20200;-62
2021/08/11 04:53:28;;;;;;;31.03;14.00;;;12.60;99.90;;;;;;4406352;32;20148;-62
2021/08/11 04:55:56;;;;;;;18.20;11.40;;;12.70;99.90;;;;;;4405903;32;20441;-62
2021/08/11 04:58:23;;;;;;;15.57;11.17;;;12.70;99.90;;;;;;4407322;32;20209;-61
2021/08/11 05:00:57;;;;;;;15.70;11.37;;;12.70;99.90;;;;;;4405667;32;20144;-62
2021/08/11 05:03:33;;;;;;;14.03;11.23;;;12.80;99.90;;;;;;4405847;32;20155;-62
2021/08/11 05:05:59;;;;;;;15.73;11.50;;;12.80;99.90;;;;;;4405296;32;20166;-61
2021/08/11 05:08:26;;;;;;;14.73;11.00;;;12.90;99.90;;;;;;4406948;32;20616;-62
2021/08/11 05:10:53;;;;;;;15.70;11.10;;;13.00;99.90;;;;;;4405350;32;20148;-62
2021/08/11 05:13:21;;;;;;;17.43;12.37;;;13.20;99.90;;;;;;4405432;32;20143;-62
2021/08/11 05:15:54;;;;;;;19.20;11.53;;;13.60;99.90;;;;;;4406085;32;20152;-62
2021/08/11 05:18:24;;;;;;;13.23;9.47;;;15.10;99.90;;;;;;4405206;32;20174;-61
2021/08/11 05:20:54;;;;;;;11.63;7.90;;;16.70;99.90;;;;;;4405229;32;20151;-62
2021/08/11 05:23:27;;;;;;;10.73;8.90;;;16.80;99.90;;;;;;4405308;32;20182;-61
2021/08/11 05:25:54;;;;;;;12.83;9.70;;;16.40;99.90;;;;;;4405418;32;20148;-62
2021/08/11 05:28:23;;;;;;;11.57;8.23;;;15.90;99.90;;;;;;4404957;32;20183;-61
2021/08/11 05:30:54;;;;;;;13.53;9.13;;;15.50;99.90;;;;;;4400897;32;20201;-61
2021/08/11 05:33:25;;;;;;;12.10;8.93;;;15.40;99.90;;;;;;4399942;32;20174;-61
2021/08/11 05:35:55;;;;;;;10.33;8.43;;;15.20;99.90;;;;;;4404921;32;20522;-61
2021/08/11 05:38:22;;;;;;;15.60;11.30;;;15.10;99.90;;;;;;4405220;32;20151;-61
2021/08/11 05:40:54;;;;;;;20.20;14.83;;;15.00;99.90;;;;;;4406911;32;20183;-61
2021/08/11 05:43:26;;;;;;;17.67;13.00;;;15.00;99.90;;;;;;4406363;32;20496;-61
2021/08/11 05:45:53;;;;;;;18.97;13.63;;;15.00;99.90;;;;;;4405153;32;20151;-62
2021/08/11 05:48:20;;;;;;;25.37;14.77;;;15.10;99.90;;;;;;4405058;32;20151;-61
2021/08/11 05:50:55;;;;;;;16.30;13.73;;;15.30;99.90;;;;;;4406750;32;20564;-61
2021/08/11 05:53:22;;;;;;;18.90;14.43;;;15.50;99.90;;;;;;4405105;32;20152;-62
2021/08/11 05:55:51;;;;;;;22.47;15.57;;;15.70;99.90;;;;;;4405723;32;20477;-61
2021/08/11 05:58:30;;;;;;;21.73;15.77;;;15.90;99.90;;;;;;4396760;32;20168;-61
2021/08/11 06:00:57;;;;;;;20.80;16.07;;;16.30;99.90;;;;;;4404944;32;20182;-62
2021/08/11 06:03:24;;;;;;;20.67;16.57;;;16.50;99.90;;;;;;4405834;32;20487;-61
2021/08/11 06:05:51;;;;;;;22.53;16.67;;;16.60;99.90;;;;;;4408781;32;20152;-61
2021/08/11 06:08:18;;;;;;;21.60;15.83;;;16.60;99.90;;;;;;4407817;32;20486;-61
2021/08/11 06:10:45;;;;;;;21.57;16.17;;;16.40;99.90;;;;;;4408878;32;20183;-61
2021/08/11 06:13:11;;;;;;;23.77;15.43;;;16.30;99.90;;;;;;4407959;32;20155;-61
2021/08/11 06:15:40;;;;;;;21.53;16.73;;;16.10;99.90;;;;;;4408883;32;20152;-61
2021/08/11 06:18:06;;;;;;;20.90;15.93;;;16.10;99.90;;;;;;4408671;32;20155;-61
2021/08/11 06:20:33;;;;;;;26.93;17.93;;;16.20;99.90;;;;;;4409035;32;20171;-59
2021/08/11 06:23:00;;;;;;;22.77;16.20;;;16.30;99.90;;;;;;4409239;32;20203;-59
2021/08/11 06:25:27;;;;;;;24.73;17.87;;;16.40;99.90;;;;;;4409679;32;20204;-61
2021/08/11 06:27:54;;;;;;;18.90;15.70;;;16.60;99.90;;;;;;4408502;32;20147;-61
2021/08/11 06:30:20;;;;;;;22.77;17.53;;;16.70;99.90;;;;;;4408879;32;20625;-61
2021/08/11 06:32:49;;;;;;;22.10;15.73;;;16.80;99.90;;;;;;4407615;32;20171;-61
2021/08/11 06:35:15;;;;;;;21.43;15.90;;;17.00;99.90;;;;;;4407522;32;20172;-61
2021/08/11 06:37:44;;;;;;;25.33;17.60;;;17.10;99.90;;;;;;4407493;32;20197;-60
2021/08/11 06:40:12;;;;;;;21.63;15.93;;;17.20;99.90;;;;;;4407410;32;20155;-61
2021/08/11 06:42:39;;;;;;;24.83;17.13;;;17.20;99.90;;;;;;4409210;32;20171;-61
2021/08/11 06:45:08;;;;;;;21.07;15.70;;;17.20;99.90;;;;;;4407380;32;20163;-61
2021/08/11 06:47:36;;;;;;;27.37;17.30;;;17.20;99.90;;;;;;4409188;32;20144;-61
2021/08/11 06:50:05;;;;;;;25.67;16.83;;;17.30;99.90;;;;;;4407418;32;20160;-61
2021/08/11 06:52:33;;;;;;;24.40;17.13;;;17.30;99.90;;;;;;4407682;32;20179;-61
2021/08/11 06:55:02;;;;;;;23.23;17.37;;;17.30;99.90;;;;;;4406898;32;20249;-61
2021/08/11 06:57:29;;;;;;;24.00;16.23;;;17.40;99.90;;;;;;4406906;32;20444;-61
2021/08/11 06:59:56;;;;;;;24.90;15.37;;;17.50;99.90;;;;;;4407499;32;20174;-61
2021/08/11 07:02:23;;;;;;;24.43;16.00;;;17.60;99.90;;;;;;4407760;32;20148;-61
2021/08/11 07:04:50;;;;;;;23.80;15.20;;;17.80;99.90;;;;;;4407131;32;20186;-61
2021/08/11 07:07:18;;;;;;;20.73;15.33;;;18.20;99.90;;;;;;4408703;32;20167;-61
2021/08/11 07:09:45;;;;;;;22.63;15.43;;;18.50;99.90;;;;;;4407177;32;20292;-61
2021/08/11 07:12:12;;;;;;;19.90;13.73;;;18.60;99.90;;;;;;4407582;32;20201;-61
2021/08/11 07:14:38;;;;;;;20.17;13.67;;;18.60;99.90;;;;;;4406594;32;20468;-61
2021/08/11 07:17:05;;;;;;;21.07;13.57;;;18.70;99.90;;;;;;4406486;32;20152;-61
2021/08/11 07:19:32;;;;;;;19.23;13.13;;;18.70;99.90;;;;;;4406806;32;20226;-61
2021/08/11 07:22:00;;;;;;;16.83;13.10;;;18.80;99.90;;;;;;4406746;32;20144;-62
2021/08/11 07:24:28;;;;;;;20.57;13.40;;;18.90;99.90;;;;;;4406854;32;20194;-61
2021/08/11 07:26:55;;;;;;;15.47;11.93;;;19.00;99.90;;;;;;4407196;32;20203;-61
2021/08/11 07:29:21;;;;;;;18.07;11.20;;;19.30;99.90;;;;;;4406928;32;20233;-61
2021/08/11 07:31:48;;;;;;;19.00;11.23;;;19.50;99.90;;;;;;4407009;32;20182;-60
2021/08/11 07:34:15;;;;;;;19.80;12.00;;;19.70;99.90;;;;;;4406617;32;20191;-60
2021/08/11 07:36:42;;;;;;;12.27;9.67;;;19.80;99.90;;;;;;4406551;32;20151;-61
2021/08/11 07:39:09;;;;;;;13.50;9.80;;;19.90;99.90;;;;;;4406627;32;20167;-60
2021/08/11 07:41:37;;;;;;;15.27;9.47;;;20.20;99.90;;;;;;4406588;32;20186;-61
2021/08/11 07:44:04;;;;;;;11.77;7.27;;;21.00;99.90;;;;;;4406652;32;20151;-61
2021/08/11 07:46:31;;;;;;;15.80;7.87;;;22.30;99.90;;;;;;4406594;32;20207;-62
2021/08/11 07:48:59;;;;;;;10.07;7.00;;;24.40;99.90;;;;;;4406522;32;20156;-64
2021/08/11 07:51:27;;;;;;;8.80;6.37;;;28.00;96.10;;;;;;4406453;32;20509;-63
2021/08/11 07:53:53;;;;;;;8.05;5.72;;;30.60;91.00;;;;;;4407118;32;20179;-64
2021/08/11 07:56:21;;;;;;;8.32;6.12;;;32.10;85.60;;;;;;4406638;32;20177;-64
2021/08/11 07:58:49;;;;;;;9.55;6.85;;;32.80;77.30;;;;;;4407755;32;20170;-63
2021/08/11 08:01:16;;;;;;;11.07;6.90;;;32.50;72.50;;;;;;4407289;32;20469;-63
2021/08/11 08:03:43;;;;;;;10.18;7.25;;;32.20;73.40;;;;;;4407760;32;20149;-63
2021/08/11 08:06:10;;;;;;;9.57;6.57;;;31.70;74.60;;;;;;4406497;32;20178;-63
2021/08/11 08:08:37;;;;;;;11.10;7.00;;;31.50;72.80;;;;;;4407906;32;20585;-63
2021/08/11 08:11:04;;;;;;;10.90;6.45;;;30.10;74.70;;;;;;4407806;32;20160;-63
2021/08/11 08:13:31;;;;;;;8.60;6.03;;;30.00;77.30;;;;;;4407139;32;20486;-61
2021/08/11 08:15:59;;;;;;;8.38;5.68;;;31.40;74.40;;;;;;4405995;32;20193;-62
2021/08/11 08:18:26;;;;;;;7.68;5.90;;;31.00;73.50;;;;;;4406162;32;20178;-62
2021/08/11 08:20:55;;;;;;;10.57;7.47;;;29.50;74.90;;;;;;4406893;32;20144;-62
2021/08/11 08:23:23;;;;;;;10.63;6.28;;;28.40;79.60;;;;;;4405974;32;20187;-64
2021/08/11 08:25:50;;;;;;;10.45;7.37;;;27.90;81.10;;;;;;4406096;32;20155;-62
2021/08/11 08:28:17;;;;;;;9.27;6.25;;;27.40;82.10;;;;;;4406951;32;20592;-63
2021/08/11 08:30:44;;;;;;;8.55;5.28;;;27.90;84.20;;;;;;4406058;32;20144;-63
2021/08/11 08:33:13;;;;;;;8.57;5.40;;;29.00;81.70;;;;;;4405887;32;20152;-63
2021/08/11 08:35:40;;;;;;;8.43;6.15;;;28.90;80.90;;;;;;4406352;32;20151;-63
2021/08/11 08:38:07;;;;;;;11.57;6.25;;;28.30;79.00;;;;;;4400144;32;20168;-63
2021/08/11 08:40:36;;;;;;;13.05;6.10;;;28.80;80.50;;;;;;4403195;32;20560;-63
2021/08/11 08:43:05;;;;;;;7.22;4.85;;;31.50;76.90;;;;;;4406432;32;20574;-62
2021/08/11 08:45:32;;;;;;;9.20;5.85;;;32.80;71.60;;;;;;4406738;32;20202;-63
2021/08/11 08:48:03;;;;;;;9.70;6.32;;;32.40;70.70;;;;;;4405761;32;20152;-63
2021/08/11 08:50:32;;;;;;;10.75;6.12;;;33.00;67.00;;;;;;4405972;32;20148;-63
2021/08/11 08:53:01;;;;;;;7.72;6.12;;;34.00;66.30;;;;;;4405719;32;20204;-63
2021/08/11 08:55:28;;;;;;;11.55;6.20;;;37.80;62.60;;;;;;4405636;32;20165;-63
2021/08/11 08:57:54;;;;;;;8.52;6.68;;;41.00;54.90;;;;;;4405386;32;20178;-63
2021/08/11 09:00:22;;;;;;;8.30;6.43;;;42.00;48.40;;;;;;4407160;32;20191;-63
2021/08/11 09:02:49;;;;;;;8.98;6.75;;;43.30;46.60;;;;;;4405371;32;20164;-63
2021/08/11 09:05:16;;;;;;;9.75;6.10;;;44.80;44.00;;;;;;4406480;32;20147;-64
2021/08/11 09:07:46;;;;;;;9.65;6.20;;;45.60;40.50;;;;;;4406982;32;20183;-63
2021/08/11 09:10:17;;;;;;;7.47;5.22;;;45.50;40.10;;;;;;4406833;32;20602;-63
2021/08/11 09:12:45;;;;;;;8.35;5.50;;;45.50;39.00;;;;;;4406876;32;20539;-63
2021/08/11 09:15:26;;;;;;;7.07;5.05;;;45.70;38.90;;;;;;4405481;32;20143;-64
2021/08/11 09:17:54;;;;;;;7.50;5.28;;;46.30;38.20;;;;;;4405364;32;20211;-65
2021/08/11 09:20:24;;;;;;;7.07;5.20;;;47.00;37.10;;;;;;4406647;32;20163;-65
2021/08/11 09:22:53;;;;;;;7.75;5.40;;;46.00;37.00;;;;;;4405175;32;20179;-63
2021/08/11 09:25:21;;;;;;;7.78;5.05;;;46.30;37.00;;;;;;4405807;32;20163;-64
2021/08/11 09:27:48;;;;;;;6.05;4.15;;;46.40;36.70;;;;;;4405566;32;20144;-63
2021/08/11 09:30:45;;;;;;;5.68;4.40;;;44.70;36.80;;;;;;4394510;32;20249;-64
2021/08/11 09:33:12;;;;;;;5.20;3.92;;;40.30;38.50;;;;;;4323966;33;20184;-62
2021/08/11 09:35:39;;;;;;;6.87;4.68;;;35.40;43.20;;;;;;4329451;33;20645;-64
2021/08/11 09:38:13;;;;;;;4.85;3.87;;;32.50;47.00;;;;;;4329547;33;20220;-62
2021/08/11 09:40:41;;;;;;;9.63;5.37;;;30.50;50.40;;;;;;4329833;33;20232;-62
2021/08/11 09:43:09;;;;;;;9.88;5.60;;;29.00;52.60;;;;;;4328093;33;20204;-63
2021/08/11 09:45:48;;;;;;;9.32;6.03;;;27.90;55.30;;;;;;4334173;33;20489;-62
2021/08/11 09:48:16;;;;;;;7.93;5.90;;;26.90;58.60;;;;;;4331971;33;20152;-63
2021/08/11 09:50:46;;;;;;;10.52;6.05;;;26.30;61.30;;;;;;4330963;33;20154;-63
2021/08/11 09:53:17;;;;;;;7.07;5.03;;;25.70;64.80;;;;;;4328984;33;20674;-63
2021/08/11 09:56:04;;;;;;;6.68;3.62;;;25.60;66.90;;;;;;4328448;33;20179;-64
2021/08/11 09:58:34;;;;;;;6.55;4.30;;;25.30;65.90;;;;;;4328404;33;20177;-64
2021/08/11 10:01:01;;;;;;;5.30;3.45;;;24.90;67.40;;;;;;4328344;33;20149;-64
2021/08/11 10:03:28;;;;;;;5.93;4.25;;;24.60;67.50;;;;;;4328469;33;20181;-64
2021/08/11 10:05:56;;;;;;;6.12;4.00;;;24.60;70.10;;;;;;4328281;33;20212;-64
2021/08/11 10:08:32;;;;;;;5.50;4.40;;;24.70;71.20;;;;;;4328270;33;20204;-65
2021/08/11 10:11:00;;;;;;;5.45;4.12;;;24.50;69.60;;;;;;4382277;32;20159;-64
2021/08/11 10:13:27;;;;;;;8.13;4.70;;;24.20;70.90;;;;;;4389827;32;20148;-63
2021/08/11 10:15:55;;;;;;;7.30;4.37;;;24.10;74.10;;;;;;4389863;32;20153;-68
2021/08/11 10:18:24;;;;;;;5.28;3.83;;;23.90;75.40;;;;;;4389554;32;20207;-67
2021/08/11 10:20:53;;;;;;;6.12;4.40;;;23.90;78.80;;;;;;4389975;32;20589;-67
2021/08/11 10:23:21;;;;;;;6.03;3.87;;;24.00;79.20;;;;;;4389649;32;20163;-64
2021/08/11 10:25:50;;;;;;;5.20;3.90;;;24.10;81.90;;;;;;4389527;32;20175;-64
2021/08/11 10:28:26;;;;;;;5.70;4.10;;;24.40;81.90;;;;;;4390733;32;20160;-65
2021/08/11 10:30:53;;;;;;;6.47;4.10;;;24.80;82.30;;;;;;4389485;32;20614;-65
2021/08/11 10:33:20;;;;;;;8.57;5.32;;;25.20;79.80;;;;;;4389499;32;20168;-64
2021/08/11 10:35:49;;;;;;;8.48;5.22;;;25.30;80.60;;;;;;4389599;32;20199;-65
2021/08/11 10:38:17;;;;;;;6.93;5.07;;;25.60;78.80;;;;;;4386424;32;20300;-64
2021/08/11 10:40:53;;;;;;;8.85;4.20;;;25.80;79.30;;;;;;4377623;32;20265;-64
2021/08/11 10:43:23;;;;;;;6.25;3.83;;;26.10;77.90;;;;;;4378563;32;21916;-65
2021/08/11 10:45:59;;;;;;;4.78;3.67;;;26.10;79.50;;;;;;4385587;32;20327;-64
2021/08/11 10:48:33;;;;;;;8.10;4.90;;;25.90;76.30;;;;;;4382162;32;20305;-64
2021/08/11 10:51:04;;;;;;;5.70;3.35;;;25.20;78.70;;;;;;4380949;32;20763;-64
2021/08/11 10:53:31;;;;;;;4.93;4.28;;;25.00;82.30;;;;;;4387344;32;20584;-66
2021/08/11 10:56:44;;;;;;;4.97;4.32;;;24.90;81.30;;;;;;4383956;32;20479;-65
2021/08/11 10:59:48;;;;;;;8.50;4.53;;;24.80;82.10;;;;;;4389433;32;20160;-66
2021/08/11 11:02:49;;;;;;;5.87;4.22;;;24.90;85.00;;;;;;4388787;32;20156;-65
2021/08/11 11:06:05;;;;;;;4.87;4.22;;;24.80;81.90;;;;;;4336118;33;20492;-65
2021/08/11 11:08:35;;;;;;;7.22;5.05;;;24.80;85.30;;;;;;4338438;33;20207;-64
2021/08/11 11:11:36;;;;;;;6.22;5.30;;;24.90;85.50;;;;;;4345511;33;20177;-64
2021/08/11 11:14:05;;;;;;;5.53;4.20;;;25.10;84.00;;;;;;4345025;33;20150;-65
2021/08/11 11:17:12;;;;;;;6.95;4.22;;;25.10;83.40;;;;;;4345970;33;20181;-65
2021/08/11 11:20:25;;;;;;;7.70;5.07;;;25.00;83.20;;;;;;4340693;33;20157;-65
2021/08/11 11:23:04;;;;;;;6.68;4.03;;;24.80;84.00;;;;;;4345374;33;20229;-64
2021/08/11 11:28:56;;;;;;;7.93;5.40;;;24.60;85.70;;;;;;4413702;32;20217;-65
2021/08/11 11:31:41;;;;;;;7.72;5.22;;;24.70;87.30;;;;;;4422245;32;20643;-66
2021/08/11 11:34:32;;;;;;;8.60;5.00;;;24.80;87.10;;;;;;4422239;32;20167;-67
2021/08/11 11:37:35;;;;;;;7.90;6.72;;;24.50;87.10;;;;;;4422798;32;20204;-64
2021/08/11 11:40:20;;;;;;;7.62;4.95;;;24.20;87.90;;;;;;4422108;32;20437;-65
2021/08/11 11:42:47;;;;;;;7.32;5.65;;;24.00;90.00;;;;;;4420212;32;20197;-64
2021/08/11 11:45:17;;;;;;;7.60;5.07;;;23.90;89.50;;;;;;4421696;32;20183;-64
2021/08/11 11:48:12;;;;;;;8.93;5.28;;;23.70;90.60;;;;;;4421878;32;20147;-64
2021/08/11 11:50:44;;;;;;;8.63;6.62;;;23.60;91.10;;;;;;4422036;32;20162;-64
2021/08/11 11:53:30;;;;;;;8.23;6.25;;;23.40;91.30;;;;;;4414456;32;20156;-65
2021/08/11 11:55:59;;;;;;;6.68;4.87;;;23.40;91.90;;;;;;4406980;32;20148;-65
2021/08/11 11:58:27;;;;;;;9.48;4.90;;;23.50;92.60;;;;;;4409752;32;20174;-65
2021/08/11 12:01:04;;;;;;;7.03;4.85;;;23.60;92.70;;;;;;4414045;32;20215;-64
2021/08/11 12:03:39;;;;;;;5.82;4.80;;;23.90;92.20;;;;;;4406246;32;20205;-64
2021/08/11 12:06:09;;;;;;;8.00;5.53;;;24.50;91.50;;;;;;4412251;32;20160;-65
2021/08/11 12:08:36;;;;;;;7.10;4.80;;;24.80;90.60;;;;;;4409363;32;20175;-64
2021/08/11 12:11:08;;;;;;;6.62;4.20;;;25.00;88.80;;;;;;4412075;32;20318;-65
2021/08/11 12:13:47;;;;;;;8.02;4.82;;;25.20;90.10;;;;;;4412326;32;20464;-65
2021/08/11 12:16:17;;;;;;;11.95;5.30;;;25.40;87.40;;;;;;4405982;32;20258;-64
2021/08/11 12:18:47;;;;;;;6.93;4.55;;;25.40;86.80;;;;;;4413151;32;20205;-64
2021/08/11 12:23:59;;;;;;;5.62;4.12;;;25.40;83.40;;;;;;4403101;32;20333;-64
2021/08/11 12:26:31;;;;;;;6.95;4.78;;;25.10;84.60;;;;;;4402741;32;20286;-64
2021/08/11 12:29:06;;;;;;;9.00;5.43;;;24.90;85.30;;;;;;4416361;32;20582;-65
2021/08/11 12:31:35;;;;;;;6.57;4.32;;;24.80;85.50;;;;;;4413998;32;20691;-64
2021/08/11 12:34:05;;;;;;;6.57;4.43;;;24.60;86.00;;;;;;4412153;32;20239;-65
2021/08/11 12:36:43;;;;;;;5.07;4.28;;;24.40;86.10;;;;;;4411725;32;20656;-65
2021/08/11 12:42:05;;;;;;;8.85;5.32;;;24.20;89.10;;;;;;4421151;32;20250;-65
2021/08/11 12:44:35;;;;;;;5.20;4.00;;;24.00;86.80;;;;;;4418400;32;20206;-64
2021/08/11 12:47:13;;;;;;;5.85;3.87;;;23.80;89.20;;;;;;4417888;32;20792;-64
2021/08/11 12:49:49;;;;;;;6.47;4.50;;;24.00;89.60;;;;;;4417997;32;20253;-64
2021/08/11 12:52:19;;;;;;;6.70;4.10;;;24.10;89.90;;;;;;4412630;32;20486;-64
2021/08/11 12:54:57;;;;;;;8.68;5.30;;;24.20;89.20;;;;;;4415089;32;20230;-63
2021/08/11 12:57:26;;;;;;;6.32;4.50;;;24.30;88.40;;;;;;4411009;32;20210;-64
2021/08/11 12:59:54;;;;;;;8.88;4.95;;;24.30;88.90;;;;;;4413793;32;20165;-63
2021/08/11 13:02:28;;;;;;;6.20;4.43;;;24.30;89.30;;;;;;4417942;32;20227;-65
2021/08/11 13:05:06;;;;;;;5.65;4.35;;;24.40;90.20;;;;;;4422805;32;21652;-65
2021/08/11 13:07:33;;;;;;;8.18;6.00;;;24.40;89.60;;;;;;4421169;32;20186;-63